createdAt,value
2023-01-20T00:01:43.432Z,54.65
2023-01-20T00:04:10.271Z,50.20
2023-01-20T00:06:36.893Z,44.25
2023-01-20T00:09:05.553Z,46.53
2023-01-20T00:11:32.635Z,47.95
2023-01-20T00:14:01.603Z,54.70
2023-01-20T00:16:29.418Z,56.55
2023-01-20T00:18:56.093Z,54.28
2023-01-20T00:21:23.267Z,48.00
2023-01-20T00:23:50.167Z,46.70
2023-01-20T00:26:22.428Z,47.17
2023-01-20T00:28:50.271Z,48.72
2023-01-20T00:31:19.721Z,45.75
2023-01-20T00:33:47.997Z,56.67
2023-01-20T00:36:16.020Z,64.15
2023-01-20T00:38:43.299Z,53.38
2023-01-20T00:41:10.624Z,59.28
2023-01-20T00:43:37.633Z,69.07
2023-01-20T00:46:05.574Z,56.75
2023-01-20T00:48:33.108Z,58.03
2023-01-20T00:51:00.272Z,63.90
2023-01-20T00:53:26.998Z,64.63
2023-01-20T00:55:53.679Z,65.68
2023-01-20T00:58:20.387Z,56.58
2023-01-20T01:00:48.195Z,56.70
2023-01-20T01:03:15.300Z,50.55
2023-01-20T01:05:42.798Z,70.20
2023-01-20T01:08:09.855Z,55.15
2023-01-20T01:10:36.478Z,66.97
2023-01-20T01:13:04.715Z,58.63
2023-01-20T01:15:31.465Z,56.97
2023-01-20T01:17:59.749Z,52.85
2023-01-20T01:20:28.225Z,56.30
2023-01-20T01:22:55.959Z,48.72
2023-01-20T01:25:23.045Z,53.20
2023-01-20T01:27:50.073Z,52.58
2023-01-20T01:30:16.991Z,49.20
2023-01-20T01:32:43.688Z,51.65
2023-01-20T01:35:10.491Z,52.45
2023-01-20T01:37:37.301Z,46.67
2023-01-20T01:40:04.451Z,47.17
2023-01-20T01:42:31.077Z,54.35
2023-01-20T01:45:13.414Z,55.25
2023-01-20T01:50:22.643Z,45.15
2023-01-20T01:52:53.153Z,59.78
2023-01-20T01:55:23.065Z,50.33
2023-01-20T01:57:51.022Z,47.88
2023-01-20T02:00:17.724Z,53.10
2023-01-20T02:02:45.791Z,50.03
2023-01-20T02:05:14.981Z,44.55
2023-01-20T02:07:45.216Z,41.45
2023-01-20T02:10:12.959Z,38.53
2023-01-20T02:12:41.221Z,44.90
2023-01-20T02:15:08.532Z,40.13
2023-01-20T02:17:44.059Z,37.00
2023-01-20T02:20:22.124Z,35.63
2023-01-20T02:23:11.681Z,43.78
2023-01-20T02:25:47.293Z,32.13
2023-01-20T02:28:35.027Z,37.45
2023-01-20T02:31:39.406Z,33.50
2023-01-20T02:34:26.064Z,36.03
2023-01-20T02:37:00.169Z,32.28
2023-01-20T02:39:33.004Z,30.92
2023-01-20T02:42:10.758Z,40.95
2023-01-20T02:44:50.989Z,30.85
2023-01-20T02:47:31.912Z,28.48
2023-01-20T02:50:11.589Z,31.63
2023-01-20T02:52:44.409Z,33.42
2023-01-20T02:55:17.586Z,32.97
2023-01-20T02:57:48.727Z,26.92
2023-01-20T03:02:58.603Z,22.20
2023-01-20T03:05:46.983Z,30.80
2023-01-20T03:08:15.849Z,27.48
2023-01-20T03:10:45.476Z,23.48
2023-01-20T03:13:52.657Z,27.95
2023-01-20T03:16:23.296Z,23.30
2023-01-20T03:18:51.660Z,21.35
2023-01-20T03:21:19.192Z,22.52
2023-01-20T03:23:51.691Z,27.08
2023-01-20T03:26:20.960Z,21.42
2023-01-20T03:28:48.965Z,23.35
2023-01-20T03:31:20.977Z,26.40
2023-01-20T03:33:50.348Z,25.52
2023-01-20T03:36:18.913Z,23.55
2023-01-20T03:38:46.179Z,27.00
2023-01-20T03:41:41.128Z,26.25
2023-01-20T03:44:29.028Z,22.30
2023-01-20T03:47:18.285Z,19.88
2023-01-20T03:50:17.080Z,18.30
2023-01-20T03:53:05.906Z,19.52
2023-01-20T03:55:53.083Z,18.42
2023-01-20T03:58:27.172Z,24.33
2023-01-20T04:00:55.228Z,24.92
2023-01-20T04:03:29.093Z,17.13
2023-01-20T04:05:59.871Z,17.35
2023-01-20T04:08:30.840Z,17.75
2023-01-20T04:11:00.683Z,14.95
2023-01-20T04:13:28.373Z,19.40
2023-01-20T04:15:56.780Z,14.23
2023-01-20T04:18:24.629Z,15.80
2023-01-20T04:21:02.056Z,19.50
2023-01-20T04:23:28.678Z,19.38
2023-01-20T04:25:55.454Z,19.27
2023-01-20T04:28:22.159Z,15.15
2023-01-20T04:30:48.939Z,14.98
2023-01-20T04:33:15.654Z,14.70
2023-01-20T04:35:42.284Z,13.95
2023-01-20T04:38:09.054Z,13.27
2023-01-20T04:40:35.812Z,12.80
2023-01-20T04:43:02.432Z,10.65
2023-01-20T04:45:29.093Z,10.18
2023-01-20T04:47:55.689Z,26.40
2023-01-20T04:50:22.363Z,13.15
2023-01-20T04:52:49.037Z,13.40
2023-01-20T04:55:16.174Z,14.43
2023-01-20T04:57:42.911Z,11.98
2023-01-20T05:00:11.597Z,11.35
2023-01-20T05:02:38.382Z,11.82
2023-01-20T05:05:05.339Z,9.93
2023-01-20T05:07:31.952Z,9.10
2023-01-20T05:09:58.642Z,11.80
2023-01-20T05:12:25.254Z,12.68
2023-01-20T05:14:51.930Z,13.05
2023-01-20T05:17:18.642Z,12.13
2023-01-20T05:19:45.388Z,8.93
2023-01-20T05:22:12.072Z,10.85
2023-01-20T05:24:38.688Z,8.27
2023-01-20T05:27:05.312Z,15.07
2023-01-20T05:29:32.353Z,11.93
2023-01-20T05:31:59.043Z,15.75
2023-01-20T05:34:25.847Z,15.35
2023-01-20T05:36:53.915Z,11.15
2023-01-20T05:39:21.344Z,8.68
2023-01-20T05:41:48.030Z,12.68
2023-01-20T05:44:15.760Z,12.73
2023-01-20T05:46:42.550Z,13.70
2023-01-20T05:49:11.408Z,9.77
2023-01-20T05:51:38.294Z,10.82
2023-01-20T05:54:04.982Z,10.73
2023-01-20T05:56:32.697Z,11.48
2023-01-20T05:58:59.549Z,11.57
2023-01-20T06:01:26.302Z,11.85
2023-01-20T06:03:53.065Z,12.27
2023-01-20T06:06:20.497Z,12.63
2023-01-20T06:08:47.225Z,11.50
2023-01-20T06:11:14.920Z,9.82
2023-01-20T06:13:41.684Z,10.25
2023-01-20T06:16:08.366Z,15.27
2023-01-20T06:18:35.284Z,9.45
2023-01-20T06:21:02.047Z,12.00
2023-01-20T06:23:29.071Z,14.15
2023-01-20T06:26:14.193Z,13.57
2023-01-20T06:28:41.153Z,9.88
2023-01-20T06:31:10.924Z,12.18
2023-01-20T06:33:37.631Z,13.88
2023-01-20T06:36:05.412Z,13.07
2023-01-20T06:38:33.667Z,14.23
2023-01-20T06:41:06.225Z,11.65
2023-01-20T06:46:02.510Z,10.00
2023-01-20T06:48:29.421Z,12.63
2023-01-20T06:51:14.128Z,12.65
2023-01-20T06:53:41.489Z,10.85
2023-01-20T06:56:10.590Z,9.95
2023-01-20T06:58:37.354Z,14.75
2023-01-20T07:01:08.810Z,17.38
2023-01-20T07:03:36.198Z,13.47
2023-01-20T07:06:15.561Z,11.45
2023-01-20T07:08:44.093Z,12.48
2023-01-20T07:11:12.713Z,13.68
2023-01-20T07:13:39.671Z,8.07
2023-01-20T07:16:08.873Z,10.35
2023-01-20T07:18:37.843Z,9.73
2023-01-20T07:21:05.004Z,9.77
2023-01-20T07:23:33.693Z,10.20
2023-01-20T07:26:06.193Z,11.73
2023-01-20T07:31:10.011Z,9.63
2023-01-20T07:33:37.370Z,9.02
2023-01-20T07:36:05.241Z,9.25
2023-01-20T07:38:31.929Z,10.68
2023-01-20T07:41:05.076Z,9.63
2023-01-20T07:43:32.504Z,11.30
2023-01-20T07:46:01.541Z,12.45
2023-01-20T07:48:30.965Z,17.45
2023-01-20T07:51:02.857Z,10.77
2023-01-20T07:53:30.592Z,10.65
2023-01-20T07:56:01.302Z,11.27
2023-01-20T07:58:30.000Z,11.32
2023-01-20T08:00:56.808Z,16.55
2023-01-20T08:03:25.413Z,14.15
2023-01-20T08:05:53.913Z,13.25
2023-01-20T08:08:20.652Z,11.68
2023-01-20T08:10:54.032Z,12.35
2023-01-20T08:13:20.968Z,18.05
2023-01-20T08:15:47.686Z,17.58
2023-01-20T08:18:14.372Z,15.68
2023-01-20T08:20:41.861Z,16.83
2023-01-20T08:23:08.540Z,12.45
2023-01-20T08:25:35.261Z,14.10
2023-01-20T08:28:02.700Z,13.52
2023-01-20T08:30:31.592Z,14.27
2023-01-20T08:32:58.219Z,15.77
2023-01-20T08:35:24.833Z,16.65
2023-01-20T08:37:51.584Z,13.30
2023-01-20T08:40:18.395Z,17.98
2023-01-20T08:42:46.408Z,13.30
2023-01-20T08:45:13.498Z,11.70
2023-01-20T08:47:46.352Z,13.05
2023-01-20T08:50:14.929Z,12.68
2023-01-20T08:52:42.395Z,17.42
2023-01-20T08:55:10.533Z,14.40
2023-01-20T08:57:37.470Z,14.25
2023-01-20T09:00:09.468Z,17.48
2023-01-20T09:02:37.528Z,21.73
2023-01-20T09:05:05.563Z,19.65
2023-01-20T09:07:32.208Z,14.73
2023-01-20T09:09:58.812Z,18.55
2023-01-20T09:12:25.575Z,16.88
2023-01-20T09:14:52.830Z,16.90
2023-01-20T09:17:19.496Z,16.00
2023-01-20T09:19:46.148Z,16.90
2023-01-20T09:22:12.797Z,18.02
2023-01-20T09:24:40.459Z,15.52
2023-01-20T09:27:07.105Z,19.38
2023-01-20T09:29:34.907Z,15.65
2023-01-20T09:32:01.558Z,15.98
2023-01-20T09:34:30.664Z,16.95
2023-01-20T09:37:19.938Z,17.25
2023-01-20T09:40:05.814Z,17.40
2023-01-20T09:43:08.068Z,14.52
2023-01-20T09:45:44.442Z,22.73
2023-01-20T09:48:41.339Z,19.63
2023-01-20T09:51:36.295Z,40.42
2023-01-20T09:54:23.254Z,39.58
2023-01-20T09:56:52.816Z,32.33
2023-01-20T09:59:32.424Z,27.52
2023-01-20T10:02:03.699Z,21.30
2023-01-20T10:04:46.205Z,23.85
2023-01-20T10:07:15.862Z,32.65
2023-01-20T10:09:57.742Z,29.30
2023-01-20T10:12:30.159Z,16.37
2023-01-20T10:17:58.006Z,18.80
2023-01-20T10:20:30.580Z,20.80
2023-01-20T10:23:11.016Z,16.40
2023-01-20T10:26:04.721Z,19.17
2023-01-20T10:28:37.866Z,17.83
2023-01-20T10:31:05.551Z,16.25
2023-01-20T10:33:37.593Z,19.77
2023-01-20T10:36:08.744Z,20.65
2023-01-20T10:38:38.559Z,18.33
2023-01-20T10:41:05.270Z,18.48
2023-01-20T10:43:32.341Z,18.13
2023-01-20T10:46:04.171Z,18.02
2023-01-20T10:49:02.764Z,19.92
2023-01-20T10:52:04.370Z,14.75
2023-01-20T10:54:42.125Z,21.02
2023-01-20T10:57:15.238Z,31.38
2023-01-20T11:00:03.039Z,16.40
2023-01-20T11:02:34.939Z,8.82
2023-01-20T11:05:03.439Z,11.23
2023-01-20T11:07:33.413Z,16.02
2023-01-20T11:10:15.478Z,14.98
2023-01-20T11:12:44.369Z,8.55
2023-01-20T11:15:33.502Z,8.70
2023-01-20T11:18:15.417Z,8.63
2023-01-20T11:20:43.604Z,20.35
2023-01-20T11:23:22.478Z,7.22
2023-01-20T11:26:01.611Z,11.13
2023-01-20T11:28:36.998Z,8.10
2023-01-20T11:31:04.698Z,13.05
2023-01-20T11:33:31.533Z,10.70
2023-01-20T11:36:00.859Z,10.13
2023-01-20T11:38:30.907Z,9.52
2023-01-20T11:40:57.864Z,10.73
2023-01-20T11:43:52.267Z,8.35
2023-01-20T11:46:27.890Z,10.57
2023-01-20T11:49:22.613Z,4.93
2023-01-20T11:51:55.101Z,4.30
2023-01-20T11:54:30.064Z,5.45
2023-01-20T11:57:07.698Z,5.28
2023-01-20T11:59:36.776Z,6.45
2023-01-20T12:02:09.802Z,5.05
2023-01-20T12:04:57.921Z,2.20
2023-01-20T12:07:30.243Z,6.13
2023-01-20T12:10:04.641Z,1.05
2023-01-20T12:12:43.174Z,8.52
2023-01-20T12:15:29.368Z,6.82
2023-01-20T12:18:20.361Z,1.38
2023-01-20T12:20:59.148Z,11.18
2023-01-20T12:23:48.778Z,3.42
2023-01-20T12:26:18.177Z,3.88
2023-01-20T12:29:20.504Z,5.57
2023-01-20T12:31:49.402Z,3.28
2023-01-20T12:34:24.431Z,5.60
2023-01-20T12:37:09.827Z,2.00
2023-01-20T12:39:36.448Z,2.38
2023-01-20T12:42:37.251Z,4.57
2023-01-20T12:45:21.253Z,3.20
2023-01-20T12:48:26.935Z,4.10
2023-01-20T12:50:56.594Z,3.03
2023-01-20T12:53:38.843Z,2.20
2023-01-20T12:56:17.678Z,4.03
2023-01-20T12:58:48.205Z,2.67
2023-01-20T13:01:34.080Z,1.33
2023-01-20T13:04:46.091Z,4.60
2023-01-20T13:07:40.735Z,2.63
2023-01-20T13:10:26.228Z,5.13
2023-01-20T13:13:30.582Z,6.82
2023-01-20T13:16:03.229Z,5.68
2023-01-20T13:18:43.830Z,4.15
2023-01-20T13:21:19.149Z,8.40
2023-01-20T13:23:46.680Z,7.25
2023-01-20T13:26:14.083Z,4.28
2023-01-20T13:28:51.568Z,14.05
2023-01-20T13:31:53.679Z,2.65
2023-01-20T13:34:23.040Z,4.40
2023-01-20T13:37:07.150Z,4.93
2023-01-20T13:39:41.472Z,3.42
2023-01-20T13:42:37.653Z,2.97
2023-01-20T13:45:13.868Z,3.95
2023-01-20T13:47:59.877Z,5.22
2023-01-20T13:50:36.671Z,2.85
2023-01-20T13:53:21.832Z,3.65
2023-01-20T13:55:48.538Z,9.07
2023-01-20T13:58:25.689Z,3.78
2023-01-20T14:01:04.572Z,2.00
2023-01-20T14:03:36.967Z,2.42
2023-01-20T14:06:11.395Z,10.52
2023-01-20T14:08:46.921Z,9.23
2023-01-20T14:11:17.682Z,5.07
2023-01-20T14:13:54.622Z,5.28
2023-01-20T14:16:38.236Z,9.07
2023-01-20T14:19:30.960Z,3.65
2023-01-20T14:22:01.908Z,4.50
2023-01-20T14:24:33.697Z,3.80
2023-01-20T14:27:23.919Z,4.35
2023-01-20T14:29:53.428Z,4.65
2023-01-20T14:32:22.362Z,7.88
2023-01-20T14:34:50.141Z,3.60
2023-01-20T14:37:31.602Z,2.55
2023-01-20T14:40:01.688Z,5.65
2023-01-20T14:42:31.127Z,2.75
2023-01-20T14:44:58.042Z,3.03
2023-01-20T14:47:26.209Z,4.22
2023-01-20T14:49:54.295Z,3.33
2023-01-20T14:52:24.820Z,3.40
2023-01-20T14:54:51.755Z,4.70
2023-01-20T14:57:21.308Z,2.60
2023-01-20T15:00:05.308Z,1.77
2023-01-20T15:02:34.776Z,5.15
2023-01-20T15:05:01.982Z,3.88
2023-01-20T15:07:28.713Z,4.60
2023-01-20T15:10:02.060Z,6.68
2023-01-20T15:12:50.900Z,3.13
2023-01-20T15:15:28.394Z,5.30
2023-01-20T15:18:23.336Z,5.97
2023-01-20T15:21:11.613Z,3.15
2023-01-20T15:23:45.594Z,2.95
2023-01-20T15:26:24.496Z,5.55
2023-01-20T15:28:51.254Z,4.63
2023-01-20T15:31:18.015Z,4.75
2023-01-20T15:33:45.187Z,3.90
2023-01-20T15:36:17.896Z,4.63
2023-01-20T15:38:44.708Z,3.65
2023-01-20T15:41:13.042Z,4.53
2023-01-20T15:43:41.637Z,5.93
2023-01-20T15:46:16.357Z,4.75
2023-01-20T15:48:43.931Z,4.70
2023-01-20T15:51:15.491Z,6.07
2023-01-20T15:53:42.896Z,3.05
2023-01-20T15:56:20.351Z,7.38
2023-01-20T15:58:47.698Z,8.18
2023-01-20T16:01:16.563Z,7.57
2023-01-20T16:03:43.755Z,6.30
2023-01-20T16:06:15.933Z,8.57
2023-01-20T16:08:46.407Z,2.88
2023-01-20T16:11:13.820Z,5.93
2023-01-20T16:13:41.284Z,6.80
2023-01-20T16:16:16.967Z,8.00
2023-01-20T16:18:43.678Z,5.50
2023-01-20T16:21:11.923Z,6.22
2023-01-20T16:23:39.131Z,10.38
2023-01-20T16:26:26.631Z,14.48
2023-01-20T16:28:55.793Z,19.23
2023-01-20T16:31:23.504Z,14.02
2023-01-20T16:33:50.470Z,58.63
2023-01-20T16:36:19.079Z,93.75
2023-01-20T16:38:48.830Z,87.97
2023-01-20T16:41:17.361Z,179.00
2023-01-20T16:43:44.034Z,167.00
2023-01-20T16:46:15.817Z,45.72
2023-01-20T16:48:43.044Z,24.02
2023-01-20T16:51:16.738Z,87.45
2023-01-20T16:53:43.538Z,60.00
2023-01-20T16:56:18.136Z,142.45
2023-01-20T16:58:47.662Z,111.05
2023-01-20T17:01:14.503Z,115.10
2023-01-20T17:03:42.520Z,37.33
2023-01-20T17:06:16.552Z,30.88
2023-01-20T17:08:51.776Z,18.90
2023-01-20T17:11:18.840Z,39.25
2023-01-20T17:13:46.385Z,24.67
2023-01-20T17:16:13.811Z,22.80
2023-01-20T17:18:44.761Z,21.00
2023-01-20T17:21:13.242Z,20.70
2023-01-20T17:23:40.993Z,19.23
2023-01-20T17:26:09.067Z,30.67
2023-01-20T17:28:35.740Z,30.90
2023-01-20T17:31:06.825Z,23.48
2023-01-20T17:33:34.173Z,51.53
2023-01-20T17:36:04.692Z,42.30
2023-01-20T17:38:34.030Z,40.15
2023-01-20T17:41:02.017Z,39.50
2023-01-20T17:43:39.505Z,40.97
2023-01-20T17:46:24.301Z,44.10
2023-01-20T17:48:51.533Z,51.03
2023-01-20T17:51:24.311Z,51.10
2023-01-20T17:53:51.344Z,43.50
2023-01-20T17:56:19.697Z,39.03
2023-01-20T17:58:47.366Z,38.40
2023-01-20T18:01:16.819Z,29.30
2023-01-20T18:03:44.412Z,34.60
2023-01-20T18:06:13.237Z,33.70
2023-01-20T18:08:40.433Z,33.92
2023-01-20T18:11:10.136Z,40.53
2023-01-20T18:13:37.488Z,42.50
2023-01-20T18:16:11.634Z,46.33
2023-01-20T18:18:43.368Z,50.97
2023-01-20T18:21:14.902Z,36.00
2023-01-20T18:23:48.426Z,41.25
2023-01-20T18:26:17.353Z,40.90
2023-01-20T18:28:44.103Z,34.92
2023-01-20T18:31:15.650Z,42.28
2023-01-20T18:33:47.712Z,50.13
2023-01-20T18:36:18.030Z,41.50
2023-01-20T18:38:52.071Z,50.13
2023-01-20T18:41:18.992Z,40.90
2023-01-20T18:43:46.395Z,48.15
2023-01-20T18:46:13.624Z,38.80
2023-01-20T18:48:42.157Z,43.58
2023-01-20T18:51:14.977Z,43.70
2023-01-20T18:53:43.861Z,38.15
2023-01-20T18:56:13.848Z,38.08
2023-01-20T18:58:45.717Z,30.63
2023-01-20T19:01:14.608Z,26.75
2023-01-20T19:03:41.416Z,28.40
2023-01-20T19:06:13.296Z,23.02
2023-01-20T19:08:41.665Z,24.65
2023-01-20T19:11:13.650Z,28.08
2023-01-20T19:13:41.613Z,31.08
2023-01-20T19:16:10.506Z,28.20
2023-01-20T19:18:37.366Z,29.27
2023-01-20T19:21:07.961Z,31.70
2023-01-20T19:23:35.189Z,34.60
2023-01-20T19:26:10.635Z,36.75
2023-01-20T19:28:37.684Z,38.35
2023-01-20T19:31:08.612Z,34.65
2023-01-20T19:33:36.647Z,31.48
2023-01-20T19:36:06.993Z,36.53
2023-01-20T19:38:35.024Z,26.02
2023-01-20T19:41:05.912Z,23.98
2023-01-20T19:43:33.372Z,21.50
2023-01-20T19:46:02.265Z,23.88
2023-01-20T19:48:28.918Z,22.15
2023-01-20T19:50:55.549Z,27.27
2023-01-20T19:53:22.409Z,35.08
2023-01-20T19:55:49.421Z,40.92
2023-01-20T19:58:16.084Z,48.92
2023-01-20T20:00:42.952Z,50.78
2023-01-20T20:03:09.878Z,60.00
2023-01-20T20:05:40.678Z,47.80
2023-01-20T20:08:07.297Z,48.92
2023-01-20T20:10:33.894Z,51.35
2023-01-20T20:13:00.533Z,37.67
2023-01-20T20:15:27.195Z,36.10
2023-01-20T20:17:54.878Z,36.83
2023-01-20T20:20:21.503Z,33.35
2023-01-20T20:22:48.200Z,29.98
2023-01-20T20:25:14.874Z,25.52
2023-01-20T20:27:41.516Z,30.73
2023-01-20T20:30:09.090Z,27.23
2023-01-20T20:32:35.726Z,34.70
2023-01-20T20:35:02.378Z,24.40
2023-01-20T20:37:29.029Z,22.42
2023-01-20T20:39:55.645Z,26.42
2023-01-20T20:42:22.426Z,25.92
2023-01-20T20:44:49.067Z,23.85
2023-01-20T20:47:15.713Z,19.58
2023-01-20T20:49:44.412Z,20.58
2023-01-20T20:52:12.192Z,17.85
2023-01-20T20:54:38.809Z,17.45
2023-01-20T20:57:05.461Z,16.45
2023-01-20T20:59:33.067Z,14.68
2023-01-20T21:01:59.834Z,17.40
2023-01-20T21:04:27.082Z,19.73
2023-01-20T21:06:53.737Z,20.20
2023-01-20T21:09:20.474Z,16.75
2023-01-20T21:11:47.098Z,20.30
2023-01-20T21:14:14.128Z,19.33
2023-01-20T21:16:40.877Z,20.08
2023-01-20T21:19:07.574Z,13.32
2023-01-20T21:21:34.195Z,9.98
2023-01-20T21:24:01.259Z,11.73
2023-01-20T21:26:30.537Z,9.38
2023-01-20T21:29:01.987Z,11.00
2023-01-20T21:31:29.487Z,11.20
2023-01-20T21:33:58.478Z,12.60
2023-01-20T21:36:26.369Z,15.27
2023-01-20T21:38:53.017Z,11.88
2023-01-20T21:41:19.997Z,13.05
2023-01-20T21:44:06.844Z,17.08
2023-01-20T21:46:38.415Z,8.15
2023-01-20T21:49:24.451Z,10.40
2023-01-20T21:52:09.900Z,7.72
2023-01-20T21:54:38.987Z,7.13
2023-01-20T21:57:05.839Z,10.70
2023-01-20T21:59:32.710Z,6.47
2023-01-20T22:01:59.481Z,4.68
2023-01-20T22:04:26.199Z,6.55
2023-01-20T22:06:52.845Z,8.73
2023-01-20T22:09:19.516Z,7.40
2023-01-20T22:11:46.117Z,8.55
2023-01-20T22:14:12.968Z,5.15
2023-01-20T22:16:39.800Z,6.95
2023-01-20T22:19:06.606Z,6.07
2023-01-20T22:21:33.533Z,5.35
2023-01-20T22:24:02.311Z,6.65
2023-01-20T22:26:30.073Z,10.15
2023-01-20T22:28:56.964Z,6.05
2023-01-20T22:31:24.992Z,10.05
2023-01-20T22:33:53.280Z,6.72
2023-01-20T22:36:21.022Z,6.65
2023-01-20T22:38:49.396Z,5.15
2023-01-20T22:41:16.732Z,8.90
2023-01-20T22:43:44.333Z,7.50
2023-01-20T22:46:13.516Z,7.55
2023-01-20T22:48:40.854Z,5.35
2023-01-20T22:51:09.272Z,5.68
2023-01-20T22:53:36.632Z,8.45
2023-01-20T22:56:10.161Z,10.90
2023-01-20T22:58:37.287Z,6.63
2023-01-20T23:01:04.488Z,9.77
2023-01-20T23:03:31.220Z,10.40
2023-01-20T23:05:59.986Z,6.28
2023-01-20T23:08:28.722Z,7.30
2023-01-20T23:10:57.740Z,4.40
2023-01-20T23:13:27.140Z,5.90
2023-01-20T23:15:53.774Z,8.13
2023-01-20T23:18:20.497Z,6.93
2023-01-20T23:20:52.386Z,3.63
2023-01-20T23:23:20.360Z,11.52
2023-01-20T23:25:47.347Z,11.73
2023-01-20T23:28:14.515Z,5.05
2023-01-20T23:30:41.768Z,3.53
2023-01-20T23:33:10.067Z,7.35
2023-01-20T23:35:39.082Z,5.95
2023-01-20T23:38:07.740Z,6.03
2023-01-20T23:40:35.544Z,8.75
2023-01-20T23:43:02.370Z,9.00
2023-01-20T23:45:29.389Z,6.20
2023-01-20T23:47:56.230Z,6.30
2023-01-20T23:50:22.923Z,5.38
2023-01-20T23:52:49.623Z,4.97
2023-01-20T23:55:16.360Z,14.07
2023-01-20T23:57:43.045Z,6.40
